Time;durP1;ratioP1;P1;durP2;ratioP2;P2;SDS_P1;SDS_P2;PMS_P1;PMS_P2;Temp;Humidity;BMP_temperature;BMP_pressure;BME280_temperature;BME280_humidity;BME280_pressure;Samples;Min_cycle;Max_cycle;Signal;HPM_P1;HPM_P2
2023/10/29 00:01:47;;;;;;;5.30;2.63;;;;;;;;;;5136681;27;20405;-80
2023/10/29 00:04:13;;;;;;;5.70;3.33;;;;;;;;;;5118220;27;20428;-82
2023/10/29 00:06:39;;;;;;;8.83;3.40;;;;;;;;;;5136451;27;20419;-81
2023/10/29 00:09:06;;;;;;;4.30;3.40;;;;;;;;;;5136715;27;20911;-81
2023/10/29 00:11:32;;;;;;;6.37;3.87;;;;;;;;;;5136306;27;20397;-84
2023/10/29 00:13:59;;;;;;;7.63;3.63;;;;;;;;;;5136525;27;20406;-83
2023/10/29 00:16:25;;;;;;;4.50;2.50;;;;;;;;;;5136355;27;20419;-83
2023/10/29 00:18:51;;;;;;;9.93;3.70;;;;;;;;;;5136026;27;20436;-82
2023/10/29 00:21:17;;;;;;;8.70;4.10;;;;;;;;;;5136099;27;20452;-82
2023/10/29 00:23:43;;;;;;;4.27;3.10;;;;;;;;;;5117862;27;20564;-82
2023/10/29 00:26:09;;;;;;;8.43;3.77;;;;;;;;;;5136257;27;20393;-82
2023/10/29 00:28:35;;;;;;;3.83;2.30;;;;;;;;;;5136258;27;20454;-82
2023/10/29 00:31:01;;;;;;;6.73;3.17;;;;;;;;;;5136035;27;20411;-81
2023/10/29 00:33:27;;;;;;;4.50;2.60;;;;;;;;;;5136306;27;20889;-83
2023/10/29 00:35:54;;;;;;;6.50;3.20;;;;;;;;;;5134621;27;20183;-83
2023/10/29 00:38:20;;;;;;;7.00;3.40;;;;;;;;;;5136250;27;20444;-81
2023/10/29 00:40:46;;;;;;;7.93;3.13;;;;;;;;;;5136149;27;20440;-82
2023/10/29 00:43:15;;;;;;;5.97;2.70;;;;;;;;;;5135981;27;20913;-85
2023/10/29 00:45:41;;;;;;;6.90;3.30;;;;;;;;;;5136221;27;20402;-81
2023/10/29 00:48:10;;;;;;;6.43;3.03;;;;;;;;;;5117484;27;20427;-80
2023/10/29 00:50:35;;;;;;;6.60;3.10;;;;;;;;;;5135679;27;20752;-80
2023/10/29 00:53:01;;;;;;;6.23;2.80;;;;;;;;;;5135743;27;20455;-82
2023/10/29 00:55:27;;;;;;;7.30;3.30;;;;;;;;;;5135739;27;20219;-80
2023/10/29 00:57:54;;;;;;;4.97;2.30;;;;;;;;;;5135942;27;20773;-81
2023/10/29 01:00:21;;;;;;;5.40;2.80;;;;;;;;;;5137276;27;20409;-79
2023/10/29 01:02:47;;;;;;;10.07;3.10;;;;;;;;;;5135785;27;21038;-83
2023/10/29 01:05:13;;;;;;;7.03;2.57;;;;;;;;;;5135502;27;20412;-83
2023/10/29 01:07:39;;;;;;;6.90;2.93;;;;;;;;;;5135714;27;20413;-85
2023/10/29 01:10:05;;;;;;;4.23;2.43;;;;;;;;;;5117215;27;20761;-79
2023/10/29 01:12:31;;;;;;;5.23;2.57;;;;;;;;;;5135582;27;20472;-84
2023/10/29 01:14:57;;;;;;;4.70;2.27;;;;;;;;;;5135519;27;20401;-80
2023/10/29 01:17:23;;;;;;;7.13;3.13;;;;;;;;;;5135548;27;20666;-79
2023/10/29 01:19:49;;;;;;;5.10;2.43;;;;;;;;;;5135205;27;20620;-80
2023/10/29 01:22:16;;;;;;;3.73;2.27;;;;;;;;;;5144550;27;20453;-80
2023/10/29 01:24:43;;;;;;;9.27;3.63;;;;;;;;;;5129065;27;20511;-81
2023/10/29 01:27:10;;;;;;;4.30;2.20;;;;;;;;;;5144680;27;20405;-83
2023/10/29 01:29:36;;;;;;;7.70;2.70;;;;;;;;;;5142021;27;20418;-80
2023/10/29 01:32:02;;;;;;;5.00;2.80;;;;;;;;;;5144475;27;20400;-80
2023/10/29 01:34:28;;;;;;;4.97;1.87;;;;;;;;;;5146295;27;21010;-80
2023/10/29 01:36:54;;;;;;;5.73;1.73;;;;;;;;;;5143849;27;20410;-81
2023/10/29 01:39:20;;;;;;;5.87;2.73;;;;;;;;;;5145207;27;20559;-79
2023/10/29 01:41:46;;;;;;;4.43;2.10;;;;;;;;;;5145507;27;20453;-79
2023/10/29 01:44:11;;;;;;;5.13;2.43;;;;;;;;;;5144248;27;20422;-80
2023/10/29 01:46:37;;;;;;;8.63;2.70;;;;;;;;;;5127332;27;20890;-79
2023/10/29 01:49:09;;;;;;;7.13;2.10;;;;;;;;;;5145175;27;20825;-80
2023/10/29 01:51:35;;;;;;;5.00;2.50;;;;;;;;;;5140940;27;20237;-82
2023/10/29 01:54:01;;;;;;;4.80;2.37;;;;;;;;;;5144990;27;20453;-80
2023/10/29 01:56:27;;;;;;;5.40;1.90;;;;;;;;;;5145721;27;20509;-80
2023/10/29 01:58:53;;;;;;;6.77;2.60;;;;;;;;;;5143782;27;20411;-81
2023/10/29 02:01:19;;;;;;;6.10;1.70;;;;;;;;;;5145285;27;20905;-79
2023/10/29 02:03:44;;;;;;;5.57;2.17;;;;;;;;;;5145008;27;20241;-80
2023/10/29 02:06:19;;;;;;;3.80;1.57;;;;;;;;;;5143374;27;20481;-80
2023/10/29 02:08:46;;;;;;;5.73;2.27;;;;;;;;;;5125766;27;20400;-79
2023/10/29 02:11:12;;;;;;;4.47;2.17;;;;;;;;;;5127050;27;20448;-86
2023/10/29 02:13:38;;;;;;;5.53;2.07;;;;;;;;;;5124631;27;20423;-79
2023/10/29 02:16:04;;;;;;;4.00;1.57;;;;;;;;;;5144856;27;20772;-79
2023/10/29 02:18:30;;;;;;;7.53;2.43;;;;;;;;;;5146365;27;20449;-79
2023/10/29 02:20:56;;;;;;;4.37;1.67;;;;;;;;;;5143282;27;20434;-80
2023/10/29 02:23:21;;;;;;;4.73;1.67;;;;;;;;;;5144480;27;20464;-81
2023/10/29 02:25:47;;;;;;;6.13;2.37;;;;;;;;;;5145191;27;20408;-80
2023/10/29 02:28:13;;;;;;;4.63;2.03;;;;;;;;;;5143207;27;20171;-83
2023/10/29 02:30:39;;;;;;;5.30;1.97;;;;;;;;;;5144756;27;20405;-80
2023/10/29 02:33:05;;;;;;;4.73;2.50;;;;;;;;;;5144808;27;20420;-81
2023/10/29 02:35:31;;;;;;;5.17;1.97;;;;;;;;;;5142771;27;20407;-81
2023/10/29 02:37:57;;;;;;;4.30;2.90;;;;;;;;;;5144952;27;20170;-81
2023/10/29 02:40:23;;;;;;;4.20;1.87;;;;;;;;;;5142475;27;20479;-86
2023/10/29 02:42:49;;;;;;;4.53;2.10;;;;;;;;;;5145035;27;20199;-81
2023/10/29 02:45:15;;;;;;;5.57;2.00;;;;;;;;;;5145030;27;20176;-81
2023/10/29 02:47:41;;;;;;;5.57;1.87;;;;;;;;;;5144114;27;20500;-86
2023/10/29 02:50:07;;;;;;;5.10;1.63;;;;;;;;;;5145595;27;20909;-88
2023/10/29 02:52:33;;;;;;;3.90;1.27;;;;;;;;;;5145275;27;20417;-81
2023/10/29 02:54:59;;;;;;;6.53;2.60;;;;;;;;;;5142110;27;20956;-80
2023/10/29 02:57:25;;;;;;;4.10;1.60;;;;;;;;;;5144398;27;20469;-83
2023/10/29 02:59:51;;;;;;;3.77;1.97;;;;;;;;;;5124344;27;20929;-82
2023/10/29 03:02:17;;;;;;;3.43;2.07;;;;;;;;;;5144612;27;20195;-80
2023/10/29 03:04:43;;;;;;;4.30;0.97;;;;;;;;;;5143649;27;20420;-80
2023/10/29 03:07:09;;;;;;;6.50;2.47;;;;;;;;;;5143041;27;20877;-80
2023/10/29 03:09:35;;;;;;;7.57;2.60;;;;;;;;;;5144797;27;20226;-83
2023/10/29 03:12:00;;;;;;;4.83;2.53;;;;;;;;;;5143719;27;20453;-81
2023/10/29 03:14:26;;;;;;;4.40;1.80;;;;;;;;;;5145298;27;20414;-80
2023/10/29 03:16:52;;;;;;;2.20;1.00;;;;;;;;;;5142292;27;20496;-81
2023/10/29 03:19:18;;;;;;;3.50;1.73;;;;;;;;;;5143184;27;20900;-82
2023/10/29 03:21:44;;;;;;;5.90;2.30;;;;;;;;;;5142355;27;20402;-79
2023/10/29 03:24:10;;;;;;;6.70;2.03;;;;;;;;;;5148499;27;20466;-85
2023/10/29 03:26:36;;;;;;;5.00;2.17;;;;;;;;;;5154526;27;20408;-81
2023/10/29 03:29:02;;;;;;;6.13;1.93;;;;;;;;;;5154511;27;20496;-81
2023/10/29 03:31:28;;;;;;;4.53;1.87;;;;;;;;;;5154514;27;20429;-85
2023/10/29 03:33:54;;;;;;;5.53;2.87;;;;;;;;;;5154466;27;20463;-81
2023/10/29 03:36:20;;;;;;;4.57;1.90;;;;;;;;;;5154096;27;20412;-83
2023/10/29 03:38:46;;;;;;;7.93;2.40;;;;;;;;;;5154422;27;20755;-81
2023/10/29 03:41:19;;;;;;;6.00;2.60;;;;;;;;;;5154452;27;20414;-82
2023/10/29 03:43:44;;;;;;;3.97;1.30;;;;;;;;;;5154378;27;20268;-82
2023/10/29 03:46:11;;;;;;;4.53;2.13;;;;;;;;;;5154443;27;20413;-83
2023/10/29 03:48:42;;;;;;;5.00;2.00;;;;;;;;;;5135777;27;20767;-79
2023/10/29 03:51:08;;;;;;;2.20;1.43;;;;;;;;;;5153965;27;20411;-82
2023/10/29 03:53:33;;;;;;;1.83;1.33;;;;;;;;;;5154016;27;20451;-84
2023/10/29 03:56:00;;;;;;;3.50;1.80;;;;;;;;;;5157522;27;20755;-83
2023/10/29 03:58:26;;;;;;;4.20;1.67;;;;;;;;;;5158202;27;20473;-81
2023/10/29 04:00:52;;;;;;;2.87;1.03;;;;;;;;;;5158201;27;20820;-80
2023/10/29 04:03:18;;;;;;;3.27;1.37;;;;;;;;;;5157983;27;20461;-83
2023/10/29 04:05:44;;;;;;;3.07;1.40;;;;;;;;;;5146530;27;20407;-84
2023/10/29 04:08:10;;;;;;;3.93;1.03;;;;;;;;;;5145259;27;20403;-83
2023/10/29 04:10:36;;;;;;;8.87;1.40;;;;;;;;;;5118756;27;20449;-84
2023/10/29 04:13:02;;;;;;;7.63;1.20;;;;;;;;;;5118546;27;20422;-83
2023/10/29 04:15:28;;;;;;;3.77;1.23;;;;;;;;;;5137069;27;20402;-85
2023/10/29 04:17:54;;;;;;;4.23;1.23;;;;;;;;;;5136766;27;20457;-83
2023/10/29 04:20:20;;;;;;;3.60;1.97;;;;;;;;;;5136546;27;20504;-79
2023/10/29 04:22:46;;;;;;;3.20;1.40;;;;;;;;;;5118095;27;20465;-86
2023/10/29 04:25:11;;;;;;;5.63;1.60;;;;;;;;;;5136732;27;20502;-82
2023/10/29 04:27:37;;;;;;;4.80;2.10;;;;;;;;;;5118449;27;20408;-81
2023/10/29 04:30:04;;;;;;;5.70;2.23;;;;;;;;;;5136895;27;20433;-81
2023/10/29 04:32:29;;;;;;;3.80;1.90;;;;;;;;;;5136849;27;20484;-88
2023/10/29 04:34:55;;;;;;;5.87;1.90;;;;;;;;;;5136226;27;20902;-81
2023/10/29 04:37:22;;;;;;;4.90;2.40;;;;;;;;;;5136320;27;20263;-82
2023/10/29 04:39:50;;;;;;;4.87;2.03;;;;;;;;;;5136592;27;20204;-86
2023/10/29 04:42:16;;;;;;;3.10;1.60;;;;;;;;;;5136551;27;20455;-80
2023/10/29 04:44:42;;;;;;;5.93;2.00;;;;;;;;;;5136707;27;20422;-82
2023/10/29 04:47:08;;;;;;;4.10;1.90;;;;;;;;;;5136500;27;20397;-87
2023/10/29 04:49:34;;;;;;;3.40;2.53;;;;;;;;;;5136192;27;20413;-85
2023/10/29 04:52:00;;;;;;;2.67;1.40;;;;;;;;;;5136457;27;20408;-87
2023/10/29 04:54:26;;;;;;;3.30;1.53;;;;;;;;;;5136272;27;20458;-83
2023/10/29 04:56:52;;;;;;;3.80;1.77;;;;;;;;;;5136497;27;20432;-86
2023/10/29 04:59:18;;;;;;;2.93;1.37;;;;;;;;;;5136518;27;20172;-81
2023/10/29 05:01:44;;;;;;;2.40;1.63;;;;;;;;;;5136316;27;20915;-83
2023/10/29 05:04:10;;;;;;;4.07;1.30;;;;;;;;;;5117469;27;20475;-81
2023/10/29 05:06:35;;;;;;;3.13;1.40;;;;;;;;;;5135911;27;20412;-80
2023/10/29 05:09:01;;;;;;;4.50;1.03;;;;;;;;;;5136121;27;20410;-81
2023/10/29 05:11:28;;;;;;;4.90;2.30;;;;;;;;;;5117596;27;20505;-81
2023/10/29 05:13:54;;;;;;;4.30;1.80;;;;;;;;;;5135324;27;20410;-86
2023/10/29 05:16:20;;;;;;;3.53;1.37;;;;;;;;;;5135686;27;20404;-79
2023/10/29 05:18:46;;;;;;;6.53;1.30;;;;;;;;;;5136038;27;20757;-80
2023/10/29 05:21:12;;;;;;;4.93;1.50;;;;;;;;;;5135296;27;20419;-80
2023/10/29 05:23:38;;;;;;;2.83;1.67;;;;;;;;;;5135636;27;20542;-82
2023/10/29 05:26:04;;;;;;;2.87;2.23;;;;;;;;;;5135804;27;20941;-80
2023/10/29 05:28:30;;;;;;;5.40;1.80;;;;;;;;;;5135646;27;20434;-81
2023/10/29 05:30:56;;;;;;;4.67;1.03;;;;;;;;;;5135566;27;20407;-80
2023/10/29 05:33:22;;;;;;;2.80;1.33;;;;;;;;;;5135540;27;20418;-79
2023/10/29 05:35:48;;;;;;;5.57;1.73;;;;;;;;;;5134977;27;20411;-83
2023/10/29 05:38:14;;;;;;;4.70;1.57;;;;;;;;;;5135455;27;20896;-83
2023/10/29 05:40:40;;;;;;;4.33;1.47;;;;;;;;;;5117114;27;20790;-84
2023/10/29 05:43:06;;;;;;;5.70;2.80;;;;;;;;;;5135331;27;20484;-82
2023/10/29 05:45:32;;;;;;;2.80;1.50;;;;;;;;;;5116915;27;20427;-81
2023/10/29 05:47:58;;;;;;;4.37;0.97;;;;;;;;;;5135343;27;20398;-80
2023/10/29 05:50:24;;;;;;;3.40;1.40;;;;;;;;;;5134907;27;20415;-81
2023/10/29 05:52:50;;;;;;;3.03;1.67;;;;;;;;;;5135170;27;20430;-84
2023/10/29 05:55:18;;;;;;;3.60;1.17;;;;;;;;;;5134970;27;21002;-80
2023/10/29 05:57:44;;;;;;;2.83;0.63;;;;;;;;;;5134779;27;20416;-82
2023/10/29 06:00:11;;;;;;;1.60;0.90;;;;;;;;;;5134754;27;20416;-85
2023/10/29 06:02:38;;;;;;;2.90;1.20;;;;;;;;;;5134467;27;20473;-84
2023/10/29 06:05:05;;;;;;;4.10;0.90;;;;;;;;;;5134403;27;20753;-79
2023/10/29 06:07:31;;;;;;;9.70;1.10;;;;;;;;;;5135077;27;20421;-90
2023/10/29 06:09:56;;;;;;;1.33;0.60;;;;;;;;;;5135051;27;20429;-86
2023/10/29 06:12:22;;;;;;;4.27;0.70;;;;;;;;;;5134692;27;20419;-81
2023/10/29 06:14:48;;;;;;;3.70;0.70;;;;;;;;;;5134384;27;20181;-82
2023/10/29 06:17:16;;;;;;;3.13;0.80;;;;;;;;;;5133735;27;20630;-83
2023/10/29 06:19:42;;;;;;;3.00;0.73;;;;;;;;;;5134303;27;20412;-83
2023/10/29 06:22:10;;;;;;;2.30;0.57;;;;;;;;;;5116432;27;20922;-82
2023/10/29 06:24:35;;;;;;;2.60;0.60;;;;;;;;;;5134601;27;20415;-82
2023/10/29 06:27:02;;;;;;;2.30;0.37;;;;;;;;;;5134293;27;20398;-80
2023/10/29 06:29:28;;;;;;;1.30;0.47;;;;;;;;;;5134073;27;20440;-82
2023/10/29 06:31:54;;;;;;;2.47;0.70;;;;;;;;;;5134526;27;20409;-82
2023/10/29 06:34:22;;;;;;;2.00;0.60;;;;;;;;;;5134160;27;20396;-82
2023/10/29 06:36:48;;;;;;;3.03;0.30;;;;;;;;;;5134079;27;20772;-83
2023/10/29 06:39:13;;;;;;;2.17;0.50;;;;;;;;;;5134124;27;20411;-81
2023/10/29 06:41:39;;;;;;;4.80;0.40;;;;;;;;;;5133901;27;20177;-78
2023/10/29 06:44:05;;;;;;;2.50;0.40;;;;;;;;;;5134225;27;20466;-79
2023/10/29 06:46:31;;;;;;;4.93;0.77;;;;;;;;;;5134382;27;20415;-79
2023/10/29 06:48:58;;;;;;;4.00;0.20;;;;;;;;;;5133868;27;21006;-90
2023/10/29 06:51:24;;;;;;;1.87;0.40;;;;;;;;;;5134341;27;20759;-88
2023/10/29 06:53:50;;;;;;;1.33;0.50;;;;;;;;;;5133940;27;20454;-83
2023/10/29 06:56:16;;;;;;;1.67;0.60;;;;;;;;;;5133937;27;20408;-87
2023/10/29 06:58:41;;;;;;;1.83;0.60;;;;;;;;;;5115331;27;20429;-87
2023/10/29 07:01:11;;;;;;;1.87;0.40;;;;;;;;;;5134110;27;20526;-82
2023/10/29 07:03:38;;;;;;;2.20;0.50;;;;;;;;;;5115408;28;20477;-82
2023/10/29 07:06:08;;;;;;;2.07;0.57;;;;;;;;;;5133843;28;20403;-83
2023/10/29 07:08:34;;;;;;;1.43;0.20;;;;;;;;;;5133956;28;20404;-88
2023/10/29 07:11:01;;;;;;;0.90;0.30;;;;;;;;;;5133739;28;20440;-84
2023/10/29 07:13:27;;;;;;;4.07;0.90;;;;;;;;;;5133603;28;20429;-84
2023/10/29 07:15:53;;;;;;;2.63;0.30;;;;;;;;;;5134019;28;20467;-85
2023/10/29 07:18:19;;;;;;;3.50;0.40;;;;;;;;;;5133923;28;20410;-85
2023/10/29 07:20:45;;;;;;;2.93;0.30;;;;;;;;;;5133930;28;20490;-85
2023/10/29 07:23:11;;;;;;;1.70;0.30;;;;;;;;;;5133760;28;20478;-85
2023/10/29 07:25:37;;;;;;;2.20;0.20;;;;;;;;;;5133625;28;20449;-83
2023/10/29 07:28:03;;;;;;;2.80;0.37;;;;;;;;;;5133653;27;20907;-82
2023/10/29 07:30:30;;;;;;;1.37;0.30;;;;;;;;;;5136528;27;20310;-83
2023/10/29 07:32:56;;;;;;;2.57;0.37;;;;;;;;;;5137761;27;20413;-85
2023/10/29 07:35:22;;;;;;;1.63;0.53;;;;;;;;;;5137518;27;20484;-82
2023/10/29 07:37:48;;;;;;;1.70;0.20;;;;;;;;;;5137793;27;20410;-82
2023/10/29 07:40:14;;;;;;;2.03;0.30;;;;;;;;;;5137701;27;20498;-82
2023/10/29 07:42:40;;;;;;;0.80;0.30;;;;;;;;;;5137541;27;20194;-82
2023/10/29 07:45:06;;;;;;;2.10;0.30;;;;;;;;;;5137677;27;20416;-80
2023/10/29 07:47:32;;;;;;;2.53;0.40;;;;;;;;;;5137645;27;20464;-80
2023/10/29 07:49:58;;;;;;;2.07;0.30;;;;;;;;;;5137198;27;20426;-80
2023/10/29 07:52:24;;;;;;;2.50;0.40;;;;;;;;;;5137543;27;20499;-81
2023/10/29 07:54:50;;;;;;;1.10;0.50;;;;;;;;;;5137130;27;20557;-81
2023/10/29 07:57:16;;;;;;;1.70;1.03;;;;;;;;;;5137410;27;20416;-82
2023/10/29 07:59:42;;;;;;;1.70;0.20;;;;;;;;;;5136654;27;20404;-80
2023/10/29 08:02:08;;;;;;;1.80;0.20;;;;;;;;;;5136159;27;20619;-82
2023/10/29 08:04:34;;;;;;;2.30;0.43;;;;;;;;;;5135772;27;20403;-82
2023/10/29 08:07:00;;;;;;;3.43;0.60;;;;;;;;;;5117701;27;20410;-80
2023/10/29 08:09:27;;;;;;;2.17;0.50;;;;;;;;;;5136646;27;20502;-86
2023/10/29 08:11:53;;;;;;;2.63;0.30;;;;;;;;;;5137208;27;20407;-88
2023/10/29 08:14:18;;;;;;;1.90;0.50;;;;;;;;;;5137103;27;20940;-83
2023/10/29 08:16:44;;;;;;;0.63;0.20;;;;;;;;;;5136836;27;20408;-83
2023/10/29 08:19:10;;;;;;;1.17;0.27;;;;;;;;;;5136712;27;20518;-82
2023/10/29 08:21:36;;;;;;;1.83;0.40;;;;;;;;;;5136913;27;20170;-81
2023/10/29 08:24:02;;;;;;;1.90;0.33;;;;;;;;;;5136840;27;20836;-81
2023/10/29 08:26:29;;;;;;;3.03;0.30;;;;;;;;;;5118485;27;20468;-82
2023/10/29 08:28:55;;;;;;;0.83;0.20;;;;;;;;;;5136935;27;20503;-82
2023/10/29 08:31:21;;;;;;;3.07;0.50;;;;;;;;;;5136818;27;20412;-87
2023/10/29 08:33:48;;;;;;;3.97;0.30;;;;;;;;;;5136468;27;20412;-80
2023/10/29 08:36:17;;;;;;;1.00;0.20;;;;;;;;;;5136799;27;20938;-81
2023/10/29 08:38:43;;;;;;;2.30;0.20;;;;;;;;;;5136508;27;20964;-83
2023/10/29 08:41:13;;;;;;;1.50;0.30;;;;;;;;;;5136069;27;20503;-80
2023/10/29 08:43:39;;;;;;;2.07;0.47;;;;;;;;;;5118016;27;20477;-77
2023/10/29 08:46:05;;;;;;;1.27;0.30;;;;;;;;;;5136469;27;20761;-76
2023/10/29 08:48:31;;;;;;;2.10;0.30;;;;;;;;;;5117767;27;20175;-78
2023/10/29 08:50:57;;;;;;;4.83;0.97;;;;;;;;;;5141827;27;20168;-77
2023/10/29 08:53:23;;;;;;;0.77;0.30;;;;;;;;;;5128070;27;20415;-79
2023/10/29 08:55:51;;;;;;;1.37;0.37;;;;;;;;;;5142395;27;20893;-92
2023/10/29 08:58:17;;;;;;;2.73;0.30;;;;;;;;;;5136345;27;20168;-77
2023/10/29 09:00:44;;;;;;;2.03;0.47;;;;;;;;;;5136214;27;20412;-79
2023/10/29 09:03:13;;;;;;;1.67;0.40;;;;;;;;;;5136191;27;20472;-81
2023/10/29 09:05:39;;;;;;;2.10;0.50;;;;;;;;;;5135744;27;20414;-78
2023/10/29 09:08:06;;;;;;;0.87;0.40;;;;;;;;;;5136213;27;20404;-76
2023/10/29 09:10:32;;;;;;;1.00;0.40;;;;;;;;;;5135943;27;20454;-79
2023/10/29 09:12:58;;;;;;;3.27;0.40;;;;;;;;;;5117440;27;20779;-80
2023/10/29 09:15:24;;;;;;;1.43;0.23;;;;;;;;;;5135861;27;20454;-79
2023/10/29 09:17:50;;;;;;;1.80;0.57;;;;;;;;;;5135942;27;20170;-80
2023/10/29 09:20:16;;;;;;;1.90;0.30;;;;;;;;;;5135541;27;20400;-79
2023/10/29 09:22:41;;;;;;;2.50;0.20;;;;;;;;;;5135677;27;20598;-82
2023/10/29 09:25:09;;;;;;;1.83;0.20;;;;;;;;;;5135739;27;20415;-80
2023/10/29 09:27:35;;;;;;;0.93;0.27;;;;;;;;;;5135743;27;20654;-79
2023/10/29 09:30:00;;;;;;;1.50;0.30;;;;;;;;;;5135661;27;20419;-79
2023/10/29 09:32:26;;;;;;;0.93;0.70;;;;;;;;;;5135595;27;20186;-82
2023/10/29 09:34:52;;;;;;;1.57;0.27;;;;;;;;;;5143291;27;20426;-80
2023/10/29 09:37:18;;;;;;;1.17;0.20;;;;;;;;;;5143753;27;20171;-80
2023/10/29 09:39:44;;;;;;;1.20;0.20;;;;;;;;;;5146374;27;20498;-84
2023/10/29 09:42:11;;;;;;;1.17;0.40;;;;;;;;;;5145024;27;20177;-84
2023/10/29 09:44:39;;;;;;;1.50;0.30;;;;;;;;;;5144663;27;20427;-84
2023/10/29 09:47:17;;;;;;;0.97;0.33;;;;;;;;;;5138730;27;20403;-84
2023/10/29 09:49:43;;;;;;;0.60;0.20;;;;;;;;;;5144350;27;20509;-80
2023/10/29 09:52:09;;;;;;;0.70;0.23;;;;;;;;;;5123874;27;20970;-81
2023/10/29 09:54:36;;;;;;;1.53;0.20;;;;;;;;;;5140150;27;20967;-84
2023/10/29 09:57:02;;;;;;;2.63;0.50;;;;;;;;;;5115375;27;20416;-80
2023/10/29 09:59:29;;;;;;;1.73;0.37;;;;;;;;;;5134727;27;20410;-82
2023/10/29 10:01:54;;;;;;;1.10;0.20;;;;;;;;;;5134847;27;20855;-85
2023/10/29 10:04:20;;;;;;;2.20;0.30;;;;;;;;;;5133646;27;20478;-82
2023/10/29 10:06:47;;;;;;;3.80;0.30;;;;;;;;;;5134518;27;20177;-80
2023/10/29 10:09:14;;;;;;;0.67;0.27;;;;;;;;;;5134183;27;20629;-83
2023/10/29 10:11:39;;;;;;;1.43;0.40;;;;;;;;;;5134194;27;20510;-85
2023/10/29 10:14:05;;;;;;;1.30;0.33;;;;;;;;;;5115986;27;20486;-83
2023/10/29 10:16:31;;;;;;;2.10;0.20;;;;;;;;;;5137126;27;20225;-83
2023/10/29 10:18:58;;;;;;;1.10;0.20;;;;;;;;;;5134149;27;20408;-85
2023/10/29 10:21:40;;;;;;;1.20;0.40;;;;;;;;;;5134471;27;20171;-81
2023/10/29 10:24:06;;;;;;;2.80;0.30;;;;;;;;;;5134616;27;20507;-85
2023/10/29 10:26:34;;;;;;;2.80;0.43;;;;;;;;;;5134013;27;20827;-85
2023/10/29 10:29:00;;;;;;;1.73;0.23;;;;;;;;;;5133517;27;20820;-86
2023/10/29 10:31:27;;;;;;;1.93;0.30;;;;;;;;;;5133384;27;20919;-84
2023/10/29 10:34:09;;;;;;;2.50;0.30;;;;;;;;;;5133691;27;20557;-86
2023/10/29 10:36:35;;;;;;;2.30;0.30;;;;;;;;;;5134125;27;20469;-86
2023/10/29 10:39:01;;;;;;;1.00;0.20;;;;;;;;;;5115530;27;20509;-87
2023/10/29 10:41:43;;;;;;;2.60;0.20;;;;;;;;;;5133882;27;20769;-84
2023/10/29 10:44:10;;;;;;;2.30;0.30;;;;;;;;;;5134089;27;20471;-85
2023/10/29 10:46:37;;;;;;;4.13;0.83;;;;;;;;;;5133784;27;20795;-85
2023/10/29 10:49:07;;;;;;;1.80;0.30;;;;;;;;;;5133384;27;20412;-85
2023/10/29 10:51:38;;;;;;;1.73;0.30;;;;;;;;;;5134027;27;20404;-85
2023/10/29 10:54:05;;;;;;;3.07;0.47;;;;;;;;;;5111887;28;20472;-84
2023/10/29 10:56:37;;;;;;;1.80;0.20;;;;;;;;;;5113489;28;20420;-86
2023/10/29 10:59:07;;;;;;;1.67;0.20;;;;;;;;;;5110581;28;20433;-83
2023/10/29 11:01:33;;;;;;;3.20;0.40;;;;;;;;;;5097561;28;20964;-82
2023/10/29 11:04:01;;;;;;;1.30;0.20;;;;;;;;;;5111230;28;20526;-81
2023/10/29 11:06:27;;;;;;;1.23;0.20;;;;;;;;;;5112995;28;20474;-83
2023/10/29 11:08:54;;;;;;;1.00;0.50;;;;;;;;;;5113323;28;20417;-79
2023/10/29 11:11:21;;;;;;;1.63;0.20;;;;;;;;;;5113180;28;20734;-79
2023/10/29 11:13:47;;;;;;;3.30;0.37;;;;;;;;;;5112930;28;20752;-80
2023/10/29 11:16:25;;;;;;;2.63;0.40;;;;;;;;;;5113118;28;20423;-79
2023/10/29 11:18:54;;;;;;;1.27;0.30;;;;;;;;;;5112768;28;20496;-81
2023/10/29 11:21:33;;;;;;;1.17;0.20;;;;;;;;;;5113139;28;20402;-81
2023/10/29 11:24:18;;;;;;;4.07;0.50;;;;;;;;;;5113110;28;20476;-80
2023/10/29 11:26:44;;;;;;;2.87;0.20;;;;;;;;;;5111614;28;20512;-83
2023/10/29 11:29:30;;;;;;;1.40;0.20;;;;;;;;;;5112881;28;20420;-80
2023/10/29 11:32:16;;;;;;;1.77;0.40;;;;;;;;;;5112242;28;20841;-81
2023/10/29 11:34:42;;;;;;;1.63;0.20;;;;;;;;;;5112354;28;20470;-82
2023/10/29 11:37:31;;;;;;;1.70;0.20;;;;;;;;;;5111280;28;20413;-80
2023/10/29 11:39:57;;;;;;;3.60;0.30;;;;;;;;;;5106851;28;20463;-80
2023/10/29 11:42:27;;;;;;;1.80;0.20;;;;;;;;;;5112569;28;20803;-80
2023/10/29 11:45:12;;;;;;;1.80;0.30;;;;;;;;;;5112642;28;20176;-80
2023/10/29 11:47:57;;;;;;;1.73;0.23;;;;;;;;;;5112481;28;20488;-80
2023/10/29 11:50:23;;;;;;;3.10;0.30;;;;;;;;;;5111307;28;20415;-81
2023/10/29 11:52:49;;;;;;;0.87;0.40;;;;;;;;;;5120505;28;20842;-81
2023/10/29 11:55:16;;;;;;;2.47;0.60;;;;;;;;;;5140582;27;20215;-80
2023/10/29 11:57:44;;;;;;;2.10;0.20;;;;;;;;;;5136642;27;20173;-80
2023/10/29 12:00:10;;;;;;;2.10;0.20;;;;;;;;;;5128697;27;20445;-81
2023/10/29 12:02:36;;;;;;;2.03;0.53;;;;;;;;;;5128760;27;20471;-80
2023/10/29 12:05:08;;;;;;;3.10;0.20;;;;;;;;;;5111748;28;20423;-81
2023/10/29 12:07:34;;;;;;;3.77;0.20;;;;;;;;;;5119243;28;20416;-80
2023/10/29 12:10:01;;;;;;;3.10;0.40;;;;;;;;;;5133112;28;20412;-81
2023/10/29 12:12:26;;;;;;;2.50;0.27;;;;;;;;;;5132998;28;20401;-82
2023/10/29 12:14:52;;;;;;;1.60;0.30;;;;;;;;;;5132903;27;20421;-81
2023/10/29 12:17:19;;;;;;;3.60;0.20;;;;;;;;;;5136673;27;20645;-82
2023/10/29 12:19:45;;;;;;;4.20;0.30;;;;;;;;;;5136549;27;20419;-84
2023/10/29 12:22:15;;;;;;;2.60;0.30;;;;;;;;;;5135833;27;20495;-81
2023/10/29 12:24:42;;;;;;;4.30;0.27;;;;;;;;;;5136594;27;20923;-83
2023/10/29 12:27:08;;;;;;;3.50;0.70;;;;;;;;;;5136578;27;20914;-81
2023/10/29 12:29:34;;;;;;;3.10;0.60;;;;;;;;;;5136525;27;20507;-84
2023/10/29 12:32:00;;;;;;;3.43;0.30;;;;;;;;;;5118411;27;20516;-82
2023/10/29 12:34:27;;;;;;;3.60;0.43;;;;;;;;;;5136186;27;20448;-79
2023/10/29 12:36:54;;;;;;;4.40;0.30;;;;;;;;;;5136686;27;20538;-81
2023/10/29 12:39:20;;;;;;;1.97;0.30;;;;;;;;;;5135653;27;20420;-81
2023/10/29 12:41:52;;;;;;;4.60;0.80;;;;;;;;;;5136463;27;20495;-85
2023/10/29 12:44:19;;;;;;;1.33;0.40;;;;;;;;;;5136484;27;20868;-81
2023/10/29 12:46:51;;;;;;;0.80;0.30;;;;;;;;;;5136549;27;20757;-83
2023/10/29 12:49:33;;;;;;;5.50;0.73;;;;;;;;;;5136325;27;20475;-80
2023/10/29 12:52:02;;;;;;;3.47;0.37;;;;;;;;;;5118045;27;20932;-82
2023/10/29 12:54:29;;;;;;;2.43;0.30;;;;;;;;;;5135986;27;20456;-81
2023/10/29 12:56:58;;;;;;;2.10;0.30;;;;;;;;;;5136361;27;20405;-78
2023/10/29 12:59:27;;;;;;;2.50;0.50;;;;;;;;;;5133227;27;20447;-92
2023/10/29 13:01:54;;;;;;;2.67;0.30;;;;;;;;;;5136345;27;20469;-81
2023/10/29 13:04:22;;;;;;;4.00;0.30;;;;;;;;;;5135938;27;20463;-81
2023/10/29 13:06:48;;;;;;;2.53;0.30;;;;;;;;;;5136678;27;20495;-84
2023/10/29 13:09:18;;;;;;;1.50;0.30;;;;;;;;;;5116952;27;20527;-83
2023/10/29 13:11:44;;;;;;;2.10;0.30;;;;;;;;;;5135513;27;20416;-80
2023/10/29 13:14:10;;;;;;;1.47;0.20;;;;;;;;;;5134890;27;20439;-83
2023/10/29 13:16:36;;;;;;;1.03;0.20;;;;;;;;;;5135891;27;20436;-80
2023/10/29 13:19:02;;;;;;;3.03;0.30;;;;;;;;;;5135423;27;20412;-79
2023/10/29 13:21:28;;;;;;;1.50;0.37;;;;;;;;;;5135757;27;20639;-80
2023/10/29 13:23:54;;;;;;;1.40;0.33;;;;;;;;;;5135631;27;20214;-79
2023/10/29 13:26:20;;;;;;;4.67;0.63;;;;;;;;;;5135483;27;20175;-78
2023/10/29 13:28:49;;;;;;;1.90;0.30;;;;;;;;;;5128327;27;20678;-80
2023/10/29 13:31:15;;;;;;;5.60;0.40;;;;;;;;;;5106528;28;20971;-80
2023/10/29 13:33:41;;;;;;;2.90;0.27;;;;;;;;;;5119528;27;20428;-80
2023/10/29 13:36:07;;;;;;;3.40;0.30;;;;;;;;;;5117082;27;20174;-80
2023/10/29 13:38:34;;;;;;;3.23;0.30;;;;;;;;;;5103712;28;20206;-81
2023/10/29 13:41:00;;;;;;;3.67;0.37;;;;;;;;;;5114714;28;20890;-82
2023/10/29 13:43:26;;;;;;;4.30;0.53;;;;;;;;;;5114898;28;20471;-79
2023/10/29 13:45:58;;;;;;;2.93;0.20;;;;;;;;;;5122853;27;20417;-81
2023/10/29 13:48:24;;;;;;;1.73;0.20;;;;;;;;;;5133625;27;20417;-80
2023/10/29 13:50:50;;;;;;;4.30;0.60;;;;;;;;;;5135570;27;20426;-80
2023/10/29 13:53:16;;;;;;;2.33;0.20;;;;;;;;;;5135598;27;20942;-79
2023/10/29 13:55:42;;;;;;;2.93;0.30;;;;;;;;;;5134896;27;20279;-79
2023/10/29 13:58:08;;;;;;;6.20;0.50;;;;;;;;;;5134986;27;20416;-79
2023/10/29 14:00:34;;;;;;;2.30;0.20;;;;;;;;;;5123072;27;20432;-79
2023/10/29 14:03:00;;;;;;;3.37;0.40;;;;;;;;;;5134077;27;20214;-79
2023/10/29 14:05:26;;;;;;;4.03;0.23;;;;;;;;;;5134575;27;20180;-82
2023/10/29 14:07:54;;;;;;;3.03;0.60;;;;;;;;;;5134507;27;20185;-83
2023/10/29 14:10:20;;;;;;;2.40;0.50;;;;;;;;;;5134277;27;20564;-80
2023/10/29 14:12:46;;;;;;;2.33;0.57;;;;;;;;;;5134450;27;20830;-82
2023/10/29 14:15:12;;;;;;;4.37;0.80;;;;;;;;;;5134328;27;20410;-82
2023/10/29 14:17:38;;;;;;;1.97;0.20;;;;;;;;;;5134022;27;20411;-85
2023/10/29 14:20:06;;;;;;;4.63;0.40;;;;;;;;;;5134321;27;20429;-86
2023/10/29 14:22:32;;;;;;;2.63;0.20;;;;;;;;;;5134423;27;20413;-85
2023/10/29 14:24:58;;;;;;;1.80;0.30;;;;;;;;;;5134193;27;20771;-88
2023/10/29 14:27:24;;;;;;;2.93;0.20;;;;;;;;;;5134405;27;20169;-81
2023/10/29 14:29:50;;;;;;;2.50;0.30;;;;;;;;;;5134269;27;20480;-83
2023/10/29 14:32:16;;;;;;;2.40;0.20;;;;;;;;;;5133934;27;20402;-89
2023/10/29 14:34:42;;;;;;;3.23;0.50;;;;;;;;;;5133969;27;20451;-83
2023/10/29 14:37:08;;;;;;;1.50;0.30;;;;;;;;;;5133969;27;20410;-85
2023/10/29 14:39:34;;;;;;;2.03;0.30;;;;;;;;;;5133669;27;20407;-82
2023/10/29 14:42:00;;;;;;;1.93;0.40;;;;;;;;;;5115009;27;20407;-81